Time;durP1;ratioP1;P1;durP2;ratioP2;P2;SDS_P1;SDS_P2;PMS_P1;PMS_P2;Temp;Humidity;BMP_temperature;BMP_pressure;BME280_temperature;BME280_humidity;BME280_pressure;Samples;Min_cycle;Max_cycle;Signal;HPM_P1;HPM_P2
2023/09/21 00:01:10;;;;;;;5.25;4.00;;;14.10;99.90;;;;;;5029582;28;20020;-76
2023/09/21 00:03:37;;;;;;;6.85;4.90;;;14.10;99.90;;;;;;5027230;28;20451;-76
2023/09/21 00:06:04;;;;;;;7.03;4.00;;;14.10;99.90;;;;;;5029615;28;20024;-74
2023/09/21 00:08:30;;;;;;;5.57;4.05;;;14.10;99.90;;;;;;5028317;28;20021;-74
2023/09/21 00:10:56;;;;;;;5.82;3.80;;;14.10;99.90;;;;;;5038394;28;20372;-74
2023/09/21 00:13:27;;;;;;;5.57;4.00;;;14.10;99.90;;;;;;5041113;28;20021;-75
2023/09/21 00:16:02;;;;;;;4.93;4.03;;;14.00;99.90;;;;;;5037445;28;20029;-75
2023/09/21 00:18:29;;;;;;;13.05;4.95;;;14.10;99.90;;;;;;5032963;28;20505;-75
2023/09/21 00:20:56;;;;;;;7.70;3.58;;;14.00;99.90;;;;;;5033394;28;20372;-75
2023/09/21 00:23:25;;;;;;;5.05;3.88;;;14.00;99.90;;;;;;5038938;28;20064;-75
2023/09/21 00:25:58;;;;;;;7.07;4.47;;;14.00;99.90;;;;;;5033030;28;20026;-74
2023/09/21 00:28:28;;;;;;;5.57;4.72;;;13.90;99.90;;;;;;5029488;28;20030;-75
2023/09/21 00:30:57;;;;;;;6.82;4.57;;;14.00;99.90;;;;;;5018732;28;20045;-75
2023/09/21 00:33:27;;;;;;;4.88;4.18;;;13.90;99.90;;;;;;5029156;28;20470;-76
2023/09/21 00:35:53;;;;;;;8.52;3.83;;;13.90;99.90;;;;;;5029071;28;20057;-76
2023/09/21 00:38:20;;;;;;;5.35;4.30;;;13.90;99.90;;;;;;5029195;28;20052;-74
2023/09/21 00:40:47;;;;;;;7.15;4.72;;;13.90;99.90;;;;;;5031019;28;20021;-76
2023/09/21 00:43:21;;;;;;;4.72;4.13;;;13.90;99.90;;;;;;5032391;28;20014;-76
2023/09/21 00:45:51;;;;;;;4.30;3.90;;;13.90;99.90;;;;;;5037949;28;20060;-75
2023/09/21 00:48:22;;;;;;;6.35;4.18;;;13.80;99.90;;;;;;5032633;28;20027;-75
2023/09/21 00:50:51;;;;;;;7.07;4.20;;;13.90;99.90;;;;;;5027149;28;20025;-74
2023/09/21 00:53:17;;;;;;;6.32;4.63;;;13.90;99.90;;;;;;5013178;28;20037;-74
2023/09/21 00:55:51;;;;;;;5.35;4.13;;;13.90;99.90;;;;;;5023760;28;20037;-75
2023/09/21 00:58:19;;;;;;;4.95;4.30;;;13.90;99.90;;;;;;5033314;28;20087;-76
2023/09/21 01:00:46;;;;;;;4.60;3.65;;;13.90;99.90;;;;;;5020421;28;20100;-75
2023/09/21 01:03:14;;;;;;;6.30;3.63;;;13.90;99.90;;;;;;5030872;28;20013;-75
2023/09/21 01:05:45;;;;;;;6.00;4.20;;;13.90;99.90;;;;;;5031119;28;20024;-75
2023/09/21 01:08:13;;;;;;;7.07;4.20;;;13.90;99.90;;;;;;5021990;28;20022;-76
2023/09/21 01:10:44;;;;;;;5.53;3.97;;;13.80;99.90;;;;;;5029910;28;20041;-75
2023/09/21 01:13:11;;;;;;;4.93;3.90;;;13.80;99.90;;;;;;5032044;28;20094;-74
2023/09/21 01:15:37;;;;;;;5.15;4.05;;;13.80;99.90;;;;;;5038268;28;20250;-74
2023/09/21 01:18:07;;;;;;;4.53;4.13;;;13.80;99.90;;;;;;5039094;28;20109;-74
2023/09/21 01:20:33;;;;;;;5.88;4.03;;;13.80;99.90;;;;;;5031045;28;20129;-75
2023/09/21 01:23:19;;;;;;;3.80;3.38;;;13.80;99.90;;;;;;5038669;28;20013;-74
2023/09/21 01:25:46;;;;;;;7.47;3.83;;;13.80;99.90;;;;;;5020285;28;20033;-76
2023/09/21 01:28:20;;;;;;;4.45;3.40;;;13.80;99.90;;;;;;5030598;28;20021;-76
2023/09/21 01:30:47;;;;;;;5.80;4.03;;;13.80;99.90;;;;;;5031670;28;20032;-75
2023/09/21 01:33:15;;;;;;;4.43;3.63;;;13.80;99.90;;;;;;5032084;28;20022;-76
2023/09/21 01:35:44;;;;;;;4.90;3.50;;;13.80;99.90;;;;;;5030575;28;20028;-75
2023/09/21 01:38:11;;;;;;;4.53;3.58;;;13.80;99.90;;;;;;5030510;28;20053;-75
2023/09/21 01:40:38;;;;;;;3.70;3.33;;;13.80;99.90;;;;;;5029982;28;20215;-75
2023/09/21 01:43:09;;;;;;;6.35;3.72;;;13.80;99.90;;;;;;5031673;28;20082;-75
2023/09/21 01:45:37;;;;;;;7.10;3.90;;;13.80;99.90;;;;;;5030335;28;20102;-74
2023/09/21 01:48:09;;;;;;;4.43;3.63;;;13.80;99.90;;;;;;5042786;28;20016;-75
2023/09/21 01:50:46;;;;;;;5.13;3.90;;;13.80;99.90;;;;;;5031776;28;20053;-75
2023/09/21 01:53:19;;;;;;;5.28;3.58;;;13.80;99.90;;;;;;5031706;28;20036;-74
2023/09/21 01:55:50;;;;;;;3.95;3.50;;;13.70;99.90;;;;;;5041154;28;20049;-75
2023/09/21 01:58:22;;;;;;;4.30;3.28;;;13.70;99.90;;;;;;5030257;28;20029;-75
2023/09/21 02:00:48;;;;;;;4.45;3.55;;;13.70;99.90;;;;;;5020811;28;20073;-75
2023/09/21 02:03:18;;;;;;;5.20;3.60;;;13.70;99.90;;;;;;5031373;28;20025;-74
2023/09/21 02:05:46;;;;;;;5.28;3.58;;;13.70;99.90;;;;;;5041386;28;20534;-74
2023/09/21 02:08:12;;;;;;;7.28;3.65;;;13.70;99.90;;;;;;5049089;28;20021;-76
2023/09/21 02:10:40;;;;;;;4.80;3.45;;;13.70;99.90;;;;;;5039320;28;20048;-75
2023/09/21 02:13:06;;;;;;;4.88;3.35;;;13.70;99.90;;;;;;5049271;28;20100;-75
2023/09/21 02:15:37;;;;;;;6.38;3.40;;;13.70;99.90;;;;;;5051021;28;20052;-75
2023/09/21 02:18:04;;;;;;;4.45;3.55;;;13.70;99.90;;;;;;5043305;28;20542;-74
2023/09/21 02:20:31;;;;;;;4.47;3.58;;;13.70;99.90;;;;;;5035630;28;20024;-74
2023/09/21 02:22:59;;;;;;;6.05;3.30;;;13.80;99.90;;;;;;5030940;28;20082;-74
2023/09/21 02:25:25;;;;;;;6.82;3.58;;;13.80;99.90;;;;;;5043974;28;20515;-75
2023/09/21 02:27:51;;;;;;;3.90;3.47;;;13.80;99.90;;;;;;5030851;28;20050;-74
2023/09/21 02:30:21;;;;;;;3.15;2.90;;;13.80;99.90;;;;;;5044059;28;20451;-75
2023/09/21 02:32:51;;;;;;;5.63;3.42;;;13.80;99.90;;;;;;5018509;28;20501;-75
2023/09/21 02:35:27;;;;;;;6.03;3.85;;;13.80;99.90;;;;;;5043786;28;20525;-75
2023/09/21 02:37:55;;;;;;;9.65;3.38;;;13.80;99.90;;;;;;5030741;28;20042;-74
2023/09/21 02:40:22;;;;;;;4.65;3.28;;;13.80;99.90;;;;;;5030797;28;20026;-74
2023/09/21 02:42:52;;;;;;;3.70;3.17;;;13.80;99.90;;;;;;5029804;28;20154;-74
2023/09/21 02:45:25;;;;;;;4.82;3.65;;;13.80;99.90;;;;;;5030897;28;20021;-75
2023/09/21 02:47:52;;;;;;;;;;;13.70;99.90;;;;;;5031289;28;20078;-74
2023/09/21 02:50:27;;;;;;;3.55;3.22;;;13.70;99.90;;;;;;5030769;28;19917;-75
2023/09/21 02:52:56;;;;;;;5.43;2.83;;;13.80;99.90;;;;;;5029615;28;20018;-74
2023/09/21 02:55:27;;;;;;;3.38;3.08;;;13.80;99.90;;;;;;5023293;28;20395;-75
2023/09/21 02:57:58;;;;;;;7.30;3.00;;;13.80;99.90;;;;;;5024750;28;20018;-74
2023/09/21 03:03:01;;;;;;;5.82;3.53;;;13.80;99.90;;;;;;5030607;28;20279;-74
2023/09/21 03:05:27;;;;;;;7.63;3.10;;;13.80;99.90;;;;;;5038854;28;20048;-74
2023/09/21 03:07:56;;;;;;;3.10;2.65;;;13.80;99.90;;;;;;5046685;28;20032;-74
2023/09/21 03:10:25;;;;;;;4.82;3.03;;;13.80;99.90;;;;;;5029061;28;20185;-74
2023/09/21 03:12:52;;;;;;;3.15;2.80;;;13.80;99.90;;;;;;5045284;28;20022;-74
2023/09/21 03:15:19;;;;;;;5.53;2.67;;;13.80;99.90;;;;;;5048262;28;20517;-75
2023/09/21 03:17:47;;;;;;;3.33;2.72;;;13.80;99.90;;;;;;5035915;28;20110;-74
2023/09/21 03:20:28;;;;;;;3.67;2.75;;;13.80;99.90;;;;;;5042933;28;20505;-74
2023/09/21 03:22:55;;;;;;;4.25;2.85;;;13.80;99.90;;;;;;5045840;28;20017;-75
2023/09/21 03:25:25;;;;;;;3.70;2.78;;;13.80;99.90;;;;;;5047569;28;20390;-75
2023/09/21 03:27:57;;;;;;;5.10;3.40;;;13.80;99.90;;;;;;5045076;28;20046;-75
2023/09/21 03:30:24;;;;;;;3.92;2.80;;;13.80;99.90;;;;;;5034640;28;20132;-75
2023/09/21 03:32:51;;;;;;;4.32;2.97;;;13.80;99.90;;;;;;5034943;28;20017;-74
2023/09/21 03:35:16;;;;;;;4.60;3.00;;;13.80;99.90;;;;;;5047402;28;20674;-74
2023/09/21 03:37:43;;;;;;;3.70;3.00;;;13.70;99.90;;;;;;5035982;28;20044;-75
2023/09/21 03:40:10;;;;;;;3.45;2.97;;;13.70;99.90;;;;;;5035442;28;20025;-74
2023/09/21 03:42:37;;;;;;;3.78;3.05;;;13.70;99.90;;;;;;5036195;28;20074;-75
2023/09/21 03:45:07;;;;;;;4.25;2.63;;;13.70;99.90;;;;;;5035043;28;20029;-76
2023/09/21 03:47:33;;;;;;;4.03;2.53;;;13.70;99.90;;;;;;5025571;28;20070;-74
2023/09/21 03:50:00;;;;;;;4.72;3.00;;;13.60;99.90;;;;;;5033221;28;20029;-74
2023/09/21 03:52:27;;;;;;;7.90;3.25;;;13.60;99.90;;;;;;5047946;28;20025;-75
2023/09/21 03:54:53;;;;;;;6.43;3.25;;;13.60;99.90;;;;;;5045322;28;20018;-75
2023/09/21 03:57:19;;;;;;;3.42;2.70;;;13.60;99.90;;;;;;5035161;28;20024;-75
2023/09/21 03:59:46;;;;;;;4.40;3.10;;;13.50;99.90;;;;;;5022227;28;20037;-75
2023/09/21 04:02:17;;;;;;;3.30;2.78;;;13.50;99.90;;;;;;5028354;28;20490;-74
2023/09/21 04:04:44;;;;;;;5.15;2.83;;;13.50;99.90;;;;;;5028964;28;20386;-75
2023/09/21 04:07:12;;;;;;;6.90;2.90;;;13.40;99.90;;;;;;5029502;28;20036;-74
2023/09/21 04:09:39;;;;;;;5.30;3.47;;;13.40;99.90;;;;;;5029441;28;20112;-75
2023/09/21 04:12:05;;;;;;;3.70;3.30;;;13.30;99.90;;;;;;5037935;28;20035;-75
2023/09/21 04:14:30;;;;;;;4.03;3.10;;;13.30;99.90;;;;;;5026952;28;20037;-74
2023/09/21 04:16:56;;;;;;;10.07;3.80;;;13.30;99.90;;;;;;5023455;28;20025;-76
2023/09/21 04:19:23;;;;;;;4.43;3.30;;;13.20;99.90;;;;;;5030046;28;20471;-74
2023/09/21 04:21:50;;;;;;;3.53;2.78;;;13.10;99.90;;;;;;5033759;28;20029;-74
2023/09/21 04:24:17;;;;;;;5.43;3.20;;;13.10;99.90;;;;;;5034337;28;20483;-75
2023/09/21 04:26:42;;;;;;;5.25;3.33;;;13.10;99.90;;;;;;5030234;28;20021;-75
2023/09/21 04:29:09;;;;;;;4.47;3.10;;;13.10;99.90;;;;;;5033294;28;20420;-75
2023/09/21 04:31:35;;;;;;;5.93;3.45;;;13.10;99.90;;;;;;5032214;28;20025;-75
2023/09/21 04:34:01;;;;;;;5.15;3.75;;;13.10;99.90;;;;;;5035281;28;20017;-74
2023/09/21 04:36:27;;;;;;;4.53;3.40;;;13.10;99.90;;;;;;5032768;28;20040;-74
2023/09/21 04:38:53;;;;;;;4.20;2.90;;;13.10;99.90;;;;;;5037197;28;20124;-75
2023/09/21 04:41:20;;;;;;;3.63;3.13;;;13.10;99.90;;;;;;5033689;28;20022;-76
2023/09/21 04:43:46;;;;;;;3.75;2.85;;;13.10;99.90;;;;;;5033536;28;20474;-75
2023/09/21 04:46:16;;;;;;;3.92;2.92;;;13.20;99.90;;;;;;5033589;28;20049;-74
2023/09/21 04:48:42;;;;;;;4.35;3.17;;;13.20;99.90;;;;;;5036088;28;20074;-75
2023/09/21 04:51:12;;;;;;;5.60;3.05;;;13.20;99.90;;;;;;5030580;28;20495;-75
2023/09/21 04:53:38;;;;;;;4.15;3.00;;;13.20;99.90;;;;;;5030612;28;20022;-76
2023/09/21 04:56:04;;;;;;;4.45;3.22;;;13.30;99.90;;;;;;5031253;28;20033;-74
2023/09/21 04:58:30;;;;;;;4.70;3.22;;;13.30;99.90;;;;;;5031446;28;20018;-75
2023/09/21 05:00:55;;;;;;;3.42;3.00;;;13.40;99.90;;;;;;5024137;28;20070;-76
2023/09/21 05:03:21;;;;;;;4.75;3.50;;;13.50;99.90;;;;;;5032162;28;20463;-75
2023/09/21 05:05:47;;;;;;;4.20;3.30;;;13.50;99.90;;;;;;5032343;28;20113;-76
2023/09/21 05:08:13;;;;;;;5.55;2.97;;;13.50;99.90;;;;;;5036776;28;20017;-76
2023/09/21 05:10:41;;;;;;;5.32;3.00;;;13.60;99.90;;;;;;5051685;28;20037;-75
2023/09/21 05:13:07;;;;;;;7.57;3.22;;;13.70;99.90;;;;;;5049758;28;20033;-75
2023/09/21 05:15:33;;;;;;;3.42;3.00;;;13.70;99.90;;;;;;5051385;28;20047;-75
2023/09/21 05:17:58;;;;;;;3.33;2.40;;;13.80;99.90;;;;;;5050713;28;20458;-74
2023/09/21 05:20:24;;;;;;;3.92;2.40;;;13.90;99.90;;;;;;5039998;28;20428;-74
2023/09/21 05:22:51;;;;;;;3.17;2.88;;;14.00;99.90;;;;;;5044810;28;20511;-74
2023/09/21 05:25:17;;;;;;;4.60;2.55;;;14.10;99.90;;;;;;5032080;28;20018;-74
2023/09/21 05:27:43;;;;;;;5.30;3.03;;;14.30;99.90;;;;;;5042480;28;20021;-75
2023/09/21 05:30:09;;;;;;;4.07;2.67;;;14.40;99.90;;;;;;5042112;28;20037;-74
2023/09/21 05:32:36;;;;;;;3.03;2.53;;;14.50;99.90;;;;;;5037082;28;20032;-75
2023/09/21 05:35:03;;;;;;;3.85;2.50;;;14.70;99.90;;;;;;5041151;28;20017;-75
2023/09/21 05:37:31;;;;;;;4.10;3.05;;;14.80;99.90;;;;;;5045743;28;20132;-74
2023/09/21 05:39:57;;;;;;;3.45;2.80;;;14.90;99.90;;;;;;5041858;28;20090;-74
2023/09/21 05:42:23;;;;;;;3.28;2.40;;;15.10;99.90;;;;;;5032397;28;20021;-75
2023/09/21 05:44:49;;;;;;;2.53;2.33;;;15.30;99.90;;;;;;5033939;28;20036;-75
2023/09/21 05:47:15;;;;;;;4.10;2.35;;;15.40;99.90;;;;;;5033089;28;20018;-74
2023/09/21 05:49:41;;;;;;;3.00;2.40;;;15.60;99.90;;;;;;5034914;28;20108;-75
2023/09/21 05:52:13;;;;;;;5.53;2.53;;;15.80;99.90;;;;;;5030152;28;20120;-75
2023/09/21 05:54:40;;;;;;;5.32;2.45;;;15.90;99.90;;;;;;5034222;28;20014;-75
2023/09/21 05:57:06;;;;;;;3.92;2.30;;;16.10;99.90;;;;;;5035079;28;20018;-76
2023/09/21 05:59:31;;;;;;;4.05;2.63;;;16.20;99.90;;;;;;5019284;28;20052;-75
2023/09/21 06:01:58;;;;;;;4.28;2.20;;;16.40;99.90;;;;;;5046123;28;20502;-76
2023/09/21 06:04:24;;;;;;;4.07;2.38;;;16.60;99.90;;;;;;5030743;28;20025;-76
2023/09/21 06:06:55;;;;;;;3.15;2.85;;;16.70;99.90;;;;;;5032987;28;20013;-76
2023/09/21 06:09:24;;;;;;;3.55;2.25;;;16.80;99.90;;;;;;5039066;28;20020;-76
2023/09/21 06:11:50;;;;;;;2.92;2.15;;;16.90;99.90;;;;;;5029013;28;20037;-75
2023/09/21 06:14:17;;;;;;;3.47;2.90;;;17.10;99.90;;;;;;5037207;28;20053;-75
2023/09/21 06:16:46;;;;;;;4.10;2.80;;;17.20;99.90;;;;;;5030011;28;20040;-75
2023/09/21 06:19:13;;;;;;;3.85;2.78;;;17.40;99.90;;;;;;5034123;28;20391;-75
2023/09/21 06:21:39;;;;;;;4.90;2.90;;;17.40;99.90;;;;;;5032207;28;20029;-76
2023/09/21 06:24:06;;;;;;;4.63;2.63;;;17.50;99.90;;;;;;5032325;28;20030;-76
2023/09/21 06:26:32;;;;;;;3.40;2.63;;;17.50;99.90;;;;;;5027951;28;20026;-76
2023/09/21 06:28:59;;;;;;;4.82;3.08;;;17.60;99.90;;;;;;5035630;28;20037;-76
2023/09/21 06:31:25;;;;;;;4.22;2.47;;;17.70;99.90;;;;;;5029666;28;20376;-76
2023/09/21 06:33:52;;;;;;;6.15;3.08;;;17.80;99.90;;;;;;5029489;28;20017;-76
2023/09/21 06:36:20;;;;;;;5.03;3.10;;;17.90;99.90;;;;;;5038355;28;20020;-76
2023/09/21 06:38:53;;;;;;;5.40;2.50;;;18.10;99.90;;;;;;5039410;28;20411;-76
2023/09/21 06:41:19;;;;;;;8.35;3.03;;;18.20;99.90;;;;;;5038776;28;20041;-76
2023/09/21 06:43:45;;;;;;;6.05;2.70;;;18.40;99.90;;;;;;5040672;28;20056;-76
2023/09/21 06:46:11;;;;;;;3.78;2.53;;;18.50;99.90;;;;;;5038169;28;20478;-76
2023/09/21 06:48:38;;;;;;;4.25;2.55;;;18.60;99.90;;;;;;5030999;28;20382;-76
2023/09/21 06:51:05;;;;;;;3.25;2.72;;;18.80;99.90;;;;;;5032235;28;20037;-76
2023/09/21 06:53:31;;;;;;;6.25;2.88;;;18.80;99.90;;;;;;5031139;28;20069;-76
2023/09/21 06:55:58;;;;;;;3.30;2.42;;;18.90;99.90;;;;;;5040139;28;20066;-76
2023/09/21 06:58:24;;;;;;;3.95;2.72;;;19.10;99.90;;;;;;5034391;28;20018;-76
2023/09/21 07:00:50;;;;;;;5.20;2.20;;;19.20;99.90;;;;;;5021564;28;20022;-76
2023/09/21 07:03:17;;;;;;;3.53;2.25;;;19.30;99.90;;;;;;5030486;28;20025;-76
2023/09/21 07:05:45;;;;;;;6.03;2.72;;;19.40;99.90;;;;;;5030581;28;20463;-76
2023/09/21 07:08:11;;;;;;;4.28;2.42;;;19.50;99.90;;;;;;5030352;28;20402;-76
2023/09/21 07:10:36;;;;;;;3.03;2.25;;;19.70;99.90;;;;;;5030619;28;20041;-77
2023/09/21 07:13:03;;;;;;;4.53;2.42;;;19.80;99.90;;;;;;5030323;28;20488;-76
2023/09/21 07:15:29;;;;;;;3.33;2.53;;;20.00;99.90;;;;;;5030433;28;20026;-77
2023/09/21 07:17:56;;;;;;;4.03;2.17;;;20.10;99.90;;;;;;5030244;28;20029;-77
2023/09/21 07:20:23;;;;;;;4.38;2.38;;;20.30;99.90;;;;;;5029229;28;20026;-76
2023/09/21 07:22:56;;;;;;;5.13;1.98;;;20.30;95.70;;;;;;5030208;28;20382;-76
2023/09/21 07:25:25;;;;;;;2.30;2.10;;;20.40;94.30;;;;;;5030438;28;20092;-76
2023/09/21 07:27:54;;;;;;;2.83;2.20;;;20.60;95.20;;;;;;5029831;28;20017;-76
2023/09/21 07:30:21;;;;;;;3.63;1.80;;;20.60;94.40;;;;;;5029054;28;20040;-77
2023/09/21 07:32:47;;;;;;;3.75;2.17;;;20.80;95.30;;;;;;5016863;28;20394;-77
2023/09/21 07:35:14;;;;;;;5.47;2.47;;;20.80;92.40;;;;;;5028863;28;20018;-76
2023/09/21 07:37:46;;;;;;;2.30;1.80;;;21.00;92.50;;;;;;5029989;28;20038;-77
2023/09/21 07:40:14;;;;;;;2.35;1.65;;;21.10;93.20;;;;;;5030152;28;20081;-77
2023/09/21 07:42:43;;;;;;;2.40;1.67;;;21.20;91.70;;;;;;5029139;28;20048;-77
2023/09/21 07:45:10;;;;;;;2.70;1.73;;;21.30;89.30;;;;;;5028653;28;20041;-76
2023/09/21 07:47:37;;;;;;;4.93;1.85;;;21.40;89.80;;;;;;5030502;28;20023;-76
2023/09/21 07:50:04;;;;;;;2.03;1.60;;;21.60;89.90;;;;;;5030276;28;20395;-77
2023/09/21 07:52:30;;;;;;;2.25;1.58;;;21.80;89.40;;;;;;5030057;28;20097;-77
2023/09/21 07:54:56;;;;;;;3.20;1.60;;;21.90;86.00;;;;;;5029822;28;20097;-77
2023/09/21 07:57:22;;;;;;;2.88;1.58;;;22.00;85.50;;;;;;5028753;28;20094;-76
2023/09/21 07:59:48;;;;;;;2.90;1.63;;;22.10;82.50;;;;;;5018112;28;20022;-76
2023/09/21 08:02:13;;;;;;;2.72;1.67;;;22.10;81.30;;;;;;5028337;28;20014;-76
2023/09/21 08:04:39;;;;;;;3.03;1.63;;;22.30;82.90;;;;;;5046470;28;20022;-76
2023/09/21 08:07:05;;;;;;;3.13;1.50;;;22.40;80.90;;;;;;5040791;28;20100;-76
2023/09/21 08:09:32;;;;;;;1.20;1.10;;;22.50;80.50;;;;;;5029502;28;20033;-76
2023/09/21 08:11:58;;;;;;;3.10;1.50;;;22.50;76.80;;;;;;5029749;28;20029;-77
2023/09/21 08:14:25;;;;;;;2.63;1.58;;;22.60;76.80;;;;;;5043154;28;20467;-77
2023/09/21 08:16:55;;;;;;;3.33;2.15;;;22.70;77.10;;;;;;5042937;28;20014;-76
2023/09/21 08:19:21;;;;;;;3.72;1.27;;;22.80;74.70;;;;;;5043926;28;20056;-77
2023/09/21 08:21:47;;;;;;;2.22;1.50;;;22.90;74.90;;;;;;5037744;28;20033;-76
2023/09/21 08:24:13;;;;;;;1.95;1.23;;;23.00;73.50;;;;;;5032460;28;20029;-77
2023/09/21 08:26:40;;;;;;;10.38;1.98;;;23.10;73.00;;;;;;5038584;28;20032;-76
2023/09/21 08:29:06;;;;;;;4.03;1.20;;;23.10;70.70;;;;;;5043677;28;20563;-77
2023/09/21 08:31:32;;;;;;;2.97;1.38;;;23.20;70.80;;;;;;5028084;28;20042;-76
2023/09/21 08:33:59;;;;;;;2.22;2.00;;;23.20;70.50;;;;;;5031606;28;20024;-77
2023/09/21 08:36:25;;;;;;;3.95;1.50;;;23.30;71.10;;;;;;5038730;28;20030;-77
2023/09/21 08:38:53;;;;;;;3.92;1.50;;;23.40;71.00;;;;;;5032701;28;20045;-77
2023/09/21 08:41:19;;;;;;;2.75;1.30;;;23.40;69.60;;;;;;5029281;28;20025;-77
2023/09/21 08:43:45;;;;;;;2.78;1.60;;;23.50;69.80;;;;;;5045812;28;20096;-77
2023/09/21 08:46:12;;;;;;;2.55;1.80;;;23.60;68.50;;;;;;5048752;28;20053;-77
2023/09/21 08:48:39;;;;;;;1.98;1.50;;;23.60;69.40;;;;;;5031963;28;20081;-76
2023/09/21 08:51:15;;;;;;;1.48;1.17;;;23.70;67.60;;;;;;5048650;28;20037;-77
2023/09/21 08:53:41;;;;;;;3.03;1.83;;;23.80;67.90;;;;;;5048201;28;20024;-77
2023/09/21 08:56:08;;;;;;;4.95;1.90;;;23.80;66.60;;;;;;5036574;28;20017;-76
2023/09/21 08:58:37;;;;;;;4.22;1.80;;;23.90;67.40;;;;;;5037053;28;20104;-77
2023/09/21 09:01:03;;;;;;;4.38;1.70;;;24.00;66.30;;;;;;5033170;28;20044;-77
2023/09/21 09:03:30;;;;;;;4.10;1.30;;;24.00;65.80;;;;;;5046795;28;20040;-76
2023/09/21 09:05:58;;;;;;;3.65;1.15;;;24.20;66.80;;;;;;5039233;28;20029;-76
2023/09/21 09:08:25;;;;;;;2.67;1.40;;;24.20;64.40;;;;;;5031010;28;20070;-77
2023/09/21 09:10:53;;;;;;;2.70;1.90;;;24.20;65.80;;;;;;5032484;28;20034;-77
2023/09/21 09:13:20;;;;;;;3.42;1.35;;;24.20;65.50;;;;;;5031136;28;20018;-77
2023/09/21 09:15:46;;;;;;;2.33;1.40;;;24.30;65.40;;;;;;5031275;28;20497;-77
2023/09/21 09:18:15;;;;;;;3.00;1.40;;;24.20;62.90;;;;;;5032136;28;20021;-77
2023/09/21 09:20:44;;;;;;;3.95;1.75;;;24.30;63.00;;;;;;5032895;28;20046;-77
2023/09/21 09:23:12;;;;;;;2.03;1.50;;;24.30;63.20;;;;;;5032167;28;20026;-77
2023/09/21 09:25:40;;;;;;;2.92;1.38;;;24.30;62.60;;;;;;5030737;28;20470;-77
2023/09/21 09:28:11;;;;;;;4.18;1.70;;;24.50;64.50;;;;;;5032072;28;20036;-77
2023/09/21 09:30:37;;;;;;;3.70;2.53;;;24.60;63.00;;;;;;5031928;28;20037;-77
2023/09/21 09:33:09;;;;;;;3.70;2.05;;;24.70;62.20;;;;;;5032353;28;20074;-76
2023/09/21 09:35:37;;;;;;;2.20;1.50;;;24.80;61.80;;;;;;5030903;28;20359;-76
2023/09/21 09:38:08;;;;;;;2.38;1.50;;;24.80;63.10;;;;;;5031807;28;20617;-76
2023/09/21 09:40:37;;;;;;;3.05;1.40;;;24.80;63.30;;;;;;5031920;28;20026;-76
2023/09/21 09:43:05;;;;;;;2.72;1.50;;;24.80;63.10;;;;;;5030644;28;20026;-77
2023/09/21 09:45:31;;;;;;;2.42;1.45;;;24.90;62.40;;;;;;5031812;28;20032;-76
2023/09/21 09:48:03;;;;;;;4.35;1.50;;;24.90;61.40;;;;;;5030941;28;20033;-76
2023/09/21 09:50:36;;;;;;;5.22;1.75;;;25.00;62.10;;;;;;5031617;28;20403;-77
2023/09/21 09:53:06;;;;;;;3.03;2.03;;;25.00;61.30;;;;;;5030311;28;20096;-76
2023/09/21 09:55:33;;;;;;;4.20;1.45;;;25.10;61.80;;;;;;5025193;28;20017;-76
2023/09/21 09:58:00;;;;;;;4.35;1.60;;;25.00;61.00;;;;;;5036261;28;20106;-76
2023/09/21 10:00:30;;;;;;;2.28;1.75;;;25.00;59.90;;;;;;5026723;28;20025;-77
2023/09/21 10:02:57;;;;;;;3.97;1.08;;;25.10;59.50;;;;;;5048028;28;20071;-76
2023/09/21 10:05:27;;;;;;;7.75;1.70;;;25.10;59.40;;;;;;5038572;28;20021;-76
2023/09/21 10:08:01;;;;;;;2.75;1.67;;;25.20;58.40;;;;;;5047192;28;20029;-76
2023/09/21 10:10:36;;;;;;;2.30;1.30;;;25.30;59.10;;;;;;5041243;28;20033;-76
2023/09/21 10:13:02;;;;;;;2.03;1.20;;;25.20;57.90;;;;;;5044418;28;20025;-76
2023/09/21 10:15:29;;;;;;;6.97;1.50;;;25.40;57.00;;;;;;5031384;28;20097;-77
2023/09/21 10:17:57;;;;;;;3.40;1.20;;;25.40;56.40;;;;;;5034951;28;20490;-76
2023/09/21 10:20:27;;;;;;;4.10;1.35;;;25.40;57.00;;;;;;5039501;28;20505;-76
2023/09/21 10:22:58;;;;;;;5.18;2.13;;;25.30;57.80;;;;;;5049067;28;20026;-75
2023/09/21 10:25:37;;;;;;;2.10;1.90;;;25.30;58.90;;;;;;5038171;28;20025;-76
2023/09/21 10:28:28;;;;;;;2.40;1.77;;;25.20;60.40;;;;;;5038502;28;20100;-77
2023/09/21 10:30:55;;;;;;;3.22;1.58;;;25.10;59.20;;;;;;5044928;28;20029;-77
2023/09/21 10:33:22;;;;;;;2.75;1.70;;;25.10;59.40;;;;;;5041207;28;20025;-77
2023/09/21 10:35:52;;;;;;;2.28;2.08;;;25.20;61.60;;;;;;5044437;28;20040;-76
2023/09/21 10:38:18;;;;;;;2.28;1.63;;;25.10;62.40;;;;;;5038059;28;20087;-76
2023/09/21 10:40:44;;;;;;;4.13;2.10;;;24.90;60.50;;;;;;5042031;28;20071;-76
2023/09/21 10:43:38;;;;;;;4.07;2.00;;;24.90;61.70;;;;;;5029672;28;20033;-76
2023/09/21 10:46:26;;;;;;;4.45;2.60;;;24.90;64.40;;;;;;5040195;28;20021;-76
2023/09/21 10:49:20;;;;;;;3.92;2.45;;;24.90;64.90;;;;;;5036151;28;20021;-76
2023/09/21 10:51:49;;;;;;;4.88;2.22;;;25.00;64.80;;;;;;5043042;28;20214;-76
2023/09/21 10:54:17;;;;;;;4.43;2.00;;;24.90;63.40;;;;;;5029457;28;20041;-77
2023/09/21 10:56:43;;;;;;;2.13;1.95;;;24.90;64.40;;;;;;5042032;28;20097;-77
2023/09/21 10:59:09;;;;;;;2.42;1.83;;;24.90;62.50;;;;;;5029880;28;20045;-76
2023/09/21 11:01:39;;;;;;;9.73;2.45;;;24.90;63.40;;;;;;5027583;28;20045;-76
2023/09/21 11:04:05;;;;;;;2.85;1.77;;;24.90;63.80;;;;;;5029448;28;20548;-76
2023/09/21 11:06:31;;;;;;;3.08;1.70;;;25.00;62.90;;;;;;5029226;28;20078;-76
2023/09/21 11:08:57;;;;;;;3.40;1.67;;;25.10;60.60;;;;;;5030786;28;20025;-76
2023/09/21 11:11:25;;;;;;;1.70;1.45;;;25.20;59.10;;;;;;5030357;28;20033;-76
2023/09/21 11:13:54;;;;;;;3.08;1.40;;;25.10;58.30;;;;;;5030492;28;20033;-77
2023/09/21 11:16:20;;;;;;;8.23;2.42;;;25.10;58.70;;;;;;5029290;28;20028;-77
2023/09/21 11:18:46;;;;;;;2.97;1.65;;;25.20;58.40;;;;;;5029491;28;20120;-77
2023/09/21 11:21:12;;;;;;;2.50;1.75;;;25.30;58.70;;;;;;5029062;28;20017;-76
2023/09/21 11:23:43;;;;;;;6.60;2.38;;;25.20;57.20;;;;;;5030278;28;20483;-77
2023/09/21 11:26:14;;;;;;;2.85;1.70;;;25.20;57.90;;;;;;5030721;28;20408;-76
2023/09/21 11:28:40;;;;;;;3.17;1.37;;;25.30;58.20;;;;;;5028934;28;20092;-77
2023/09/21 11:31:08;;;;;;;5.47;2.10;;;25.40;59.00;;;;;;5024782;28;20057;-77
2023/09/21 11:33:37;;;;;;;3.35;1.63;;;25.40;59.00;;;;;;5029914;28;20116;-77
2023/09/21 11:36:04;;;;;;;3.00;1.65;;;25.50;59.30;;;;;;5027721;28;20078;-78
2023/09/21 11:38:33;;;;;;;4.95;1.45;;;25.50;58.00;;;;;;5028440;28;20507;-77
2023/09/21 11:40:59;;;;;;;1.90;1.80;;;25.50;58.80;;;;;;5022647;28;20033;-77
2023/09/21 11:43:25;;;;;;;4.47;1.85;;;25.40;60.30;;;;;;5027908;28;20402;-78
2023/09/21 11:45:52;;;;;;;1.90;1.70;;;25.30;62.70;;;;;;5028104;28;20028;-78
2023/09/21 11:48:21;;;;;;;1.63;1.48;;;25.30;60.80;;;;;;5024537;28;20029;-78
2023/09/21 11:50:48;;;;;;;3.92;1.77;;;25.30;61.50;;;;;;5025076;28;20041;-77
2023/09/21 11:53:14;;;;;;;2.17;1.92;;;25.20;60.30;;;;;;5029754;28;20018;-79
2023/09/21 11:55:41;;;;;;;5.82;1.88;;;25.30;60.80;;;;;;5022630;28;20038;-77
2023/09/21 11:58:14;;;;;;;3.63;1.60;;;25.20;61.10;;;;;;5025678;28;20112;-77
2023/09/21 12:00:49;;;;;;;2.33;2.05;;;25.20;61.50;;;;;;5023096;28;20048;-77
2023/09/21 12:03:17;;;;;;;3.80;2.03;;;25.10;61.40;;;;;;5024054;28;20029;-76
2023/09/21 12:05:43;;;;;;;4.63;2.17;;;25.20;62.00;;;;;;5022965;28;20395;-76
2023/09/21 12:08:14;;;;;;;3.92;2.05;;;25.30;62.40;;;;;;5027568;28;20094;-76
2023/09/21 12:10:47;;;;;;;3.67;1.73;;;25.30;62.90;;;;;;5020918;28;20077;-77
2023/09/21 12:13:14;;;;;;;3.33;2.20;;;25.20;62.10;;;;;;5025284;28;20026;-77
2023/09/21 12:15:40;;;;;;;3.85;2.20;;;25.10;61.80;;;;;;5015418;28;20038;-78
2023/09/21 12:18:07;;;;;;;7.28;2.50;;;25.10;62.90;;;;;;5025714;28;20063;-78
2023/09/21 12:20:38;;;;;;;3.08;2.35;;;25.10;63.10;;;;;;5025012;28;20514;-78
2023/09/21 12:23:06;;;;;;;6.70;2.28;;;25.10;64.90;;;;;;5024241;28;20053;-77
2023/09/21 12:25:35;;;;;;;3.45;1.70;;;25.10;64.80;;;;;;5025403;28;20060;-78
2023/09/21 12:28:00;;;;;;;4.30;2.13;;;25.10;63.70;;;;;;5019116;28;20121;-78
2023/09/21 12:30:26;;;;;;;4.55;1.80;;;25.10;64.40;;;;;;5018282;28;20132;-78
2023/09/21 12:32:51;;;;;;;4.15;2.08;;;25.00;64.90;;;;;;5028726;28;20483;-78
2023/09/21 12:35:19;;;;;;;3.28;2.40;;;25.00;64.60;;;;;;5025187;28;20038;-78
2023/09/21 12:37:45;;;;;;;4.47;2.10;;;25.10;65.10;;;;;;5027832;28;20414;-78
2023/09/21 12:40:14;;;;;;;3.95;1.98;;;25.10;64.60;;;;;;5029223;28;20025;-77
2023/09/21 12:42:41;;;;;;;2.38;1.95;;;25.00;64.60;;;;;;5033486;28;20161;-76
2023/09/21 12:45:08;;;;;;;3.40;1.67;;;24.90;64.00;;;;;;5027102;28;20026;-78
2023/09/21 12:47:34;;;;;;;2.42;1.90;;;25.00;64.60;;;;;;5033623;28;20501;-78
2023/09/21 12:50:00;;;;;;;3.95;2.08;;;25.00;64.60;;;;;;5039362;28;20029;-78
2023/09/21 12:52:30;;;;;;;5.32;2.10;;;25.00;65.20;;;;;;5034965;28;20427;-77
2023/09/21 12:54:56;;;;;;;3.70;1.98;;;25.00;64.20;;;;;;5034497;28;20522;-77